createdAt,value
2018-08-14T00:00:29.444Z,4.20
2018-08-14T00:02:58.424Z,3.50
2018-08-14T00:05:27.194Z,3.90
2018-08-14T00:07:55.743Z,3.50
2018-08-14T00:10:24.721Z,2.90
2018-08-14T00:12:53.265Z,2.97
2018-08-14T00:15:21.896Z,3.17
2018-08-14T00:17:50.443Z,3.27
2018-08-14T00:20:21.377Z,3.37
2018-08-14T00:22:50.192Z,3.23
2018-08-14T00:25:18.805Z,3.53
2018-08-14T00:27:47.790Z,2.90
2018-08-14T00:30:19.251Z,3.20
2018-08-14T00:32:47.883Z,3.50
2018-08-14T00:35:16.845Z,3.57
2018-08-14T00:37:45.559Z,3.57
2018-08-14T00:40:16.729Z,2.90
2018-08-14T00:42:45.937Z,3.10
2018-08-14T00:45:17.241Z,3.53
2018-08-14T00:47:46.236Z,3.83
2018-08-14T00:50:15.535Z,3.43
2018-08-14T00:52:44.397Z,3.57
2018-08-14T00:55:14.250Z,3.57
2018-08-14T00:57:43.604Z,3.20
2018-08-14T01:00:19.538Z,3.97
2018-08-14T01:02:49.055Z,3.10
2018-08-14T01:05:18.273Z,3.50
2018-08-14T01:07:47.199Z,3.30
2018-08-14T01:10:15.724Z,3.70
2018-08-14T01:12:46.084Z,3.67
2018-08-14T01:15:16.120Z,4.27
2018-08-14T01:17:45.499Z,4.13
2018-08-14T01:20:15.278Z,4.13
2018-08-14T01:22:45.760Z,4.57
2018-08-14T01:25:14.872Z,4.10
2018-08-14T01:27:43.489Z,4.57
2018-08-14T01:30:19.109Z,4.40
2018-08-14T01:32:47.904Z,4.47
2018-08-14T01:35:16.700Z,4.80
2018-08-14T01:37:45.460Z,4.50
2018-08-14T01:40:14.029Z,5.10
2018-08-14T01:42:42.706Z,4.70
2018-08-14T01:45:12.856Z,4.37
2018-08-14T01:47:41.958Z,4.70
2018-08-14T01:50:12.763Z,4.13
2018-08-14T01:52:41.244Z,4.10
2018-08-14T01:55:09.712Z,4.63
2018-08-14T01:57:38.203Z,3.97
2018-08-14T02:00:07.619Z,3.60
2018-08-14T02:02:36.344Z,4.13
2018-08-14T02:05:06.017Z,3.37
2018-08-14T02:07:34.523Z,4.57
2018-08-14T02:10:03.076Z,3.47
2018-08-14T02:12:31.613Z,3.57
2018-08-14T02:15:00.164Z,3.77
2018-08-14T02:17:28.603Z,3.93
2018-08-14T02:19:57.144Z,4.10
2018-08-14T02:22:25.599Z,2.90
2018-08-14T02:24:54.084Z,3.20
2018-08-14T02:27:22.656Z,3.33
2018-08-14T02:29:51.222Z,3.80
2018-08-14T02:32:19.665Z,3.20
2018-08-14T02:34:48.332Z,3.27
2018-08-14T02:37:16.773Z,4.43
2018-08-14T02:39:45.400Z,3.70
2018-08-14T02:42:13.876Z,4.23
2018-08-14T02:44:42.444Z,3.13
2018-08-14T02:47:10.899Z,3.53
2018-08-14T02:49:39.368Z,2.90
2018-08-14T02:52:07.876Z,3.17
2018-08-14T02:54:36.360Z,2.87
2018-08-14T02:57:04.868Z,2.80
2018-08-14T02:59:33.472Z,3.47
2018-08-14T03:02:02.589Z,3.37
2018-08-14T03:04:31.098Z,3.50
2018-08-14T03:06:59.580Z,2.80
2018-08-14T03:09:28.017Z,3.17
2018-08-14T03:11:56.517Z,3.20
2018-08-14T03:14:24.932Z,2.90
2018-08-14T03:16:53.456Z,3.33
2018-08-14T03:19:21.923Z,2.60
2018-08-14T03:21:50.438Z,3.30
2018-08-14T03:24:18.918Z,3.10
2018-08-14T03:26:47.389Z,2.40
2018-08-14T03:29:15.899Z,2.60
2018-08-14T03:31:44.574Z,3.00
2018-08-14T03:34:13.042Z,2.50
2018-08-14T03:36:41.520Z,2.90
2018-08-14T03:39:12.743Z,2.73
2018-08-14T03:41:41.763Z,3.30
2018-08-14T03:44:10.213Z,2.90
2018-08-14T03:46:38.718Z,2.43
2018-08-14T03:49:07.200Z,2.67
2018-08-14T03:51:35.700Z,2.83
2018-08-14T03:54:04.240Z,2.90
2018-08-14T03:56:32.812Z,2.90
2018-08-14T03:59:01.505Z,2.90
2018-08-14T04:01:29.964Z,2.50
2018-08-14T04:03:58.416Z,2.40
2018-08-14T04:06:26.900Z,3.03
2018-08-14T04:08:55.508Z,3.03
2018-08-14T04:11:23.937Z,2.30
2018-08-14T04:13:52.405Z,2.30
2018-08-14T04:16:20.836Z,2.27
2018-08-14T04:18:49.326Z,2.63
2018-08-14T04:21:17.769Z,2.40
2018-08-14T04:23:46.593Z,2.50
2018-08-14T04:26:15.120Z,2.50
2018-08-14T04:28:43.656Z,2.93
2018-08-14T04:31:12.124Z,2.47
2018-08-14T04:33:40.581Z,2.20
2018-08-14T04:36:09.080Z,2.27
2018-08-14T04:38:37.684Z,2.20
2018-08-14T04:41:06.402Z,2.80
2018-08-14T04:43:34.824Z,2.97
2018-08-14T04:46:03.344Z,2.70
2018-08-14T04:48:31.834Z,2.30
2018-08-14T04:51:00.323Z,2.40
2018-08-14T04:53:28.832Z,2.77
2018-08-14T04:55:57.293Z,2.77
2018-08-14T04:58:25.789Z,3.23
2018-08-14T05:00:54.254Z,2.87
2018-08-14T05:03:22.833Z,2.73
2018-08-14T05:05:51.282Z,2.40
2018-08-14T05:08:19.848Z,2.40
2018-08-14T05:10:48.397Z,2.60
2018-08-14T05:13:17.725Z,2.57
2018-08-14T05:15:46.220Z,2.90
2018-08-14T05:18:14.648Z,2.30
2018-08-14T05:20:43.110Z,2.80
2018-08-14T05:23:11.632Z,3.43
2018-08-14T05:25:41.098Z,3.93
2018-08-14T05:28:09.621Z,5.30
2018-08-14T05:30:38.189Z,3.93
2018-08-14T05:33:06.630Z,3.73
2018-08-14T05:35:35.834Z,3.10
2018-08-14T05:38:04.576Z,4.03
2018-08-14T05:40:33.033Z,4.80
2018-08-14T05:43:01.468Z,3.80
2018-08-14T05:45:29.948Z,5.20
2018-08-14T05:47:58.383Z,6.67
2018-08-14T05:50:26.875Z,5.70
2018-08-14T05:52:55.447Z,5.47
2018-08-14T05:55:23.977Z,5.50
2018-08-14T05:57:52.448Z,5.37
2018-08-14T06:00:21.092Z,3.87
2018-08-14T06:02:49.656Z,3.90
2018-08-14T06:05:18.193Z,4.40
2018-08-14T06:07:46.700Z,3.77
2018-08-14T06:10:15.423Z,3.60
2018-08-14T06:25:48.361Z,3.60
2018-08-14T06:28:16.817Z,2.23
2018-08-14T06:30:45.312Z,2.27
2018-08-14T06:33:13.785Z,2.40
2018-08-14T06:35:42.222Z,2.83
2018-08-14T06:38:10.736Z,2.30
2018-08-14T06:40:39.267Z,2.40
2018-08-14T06:43:08.136Z,2.40
2018-08-14T06:45:36.648Z,2.60
2018-08-14T06:48:05.640Z,2.90
2018-08-14T06:50:34.092Z,2.00
2018-08-14T06:53:02.737Z,2.20
2018-08-14T06:55:31.157Z,1.77
2018-08-14T06:57:59.607Z,2.00
2018-08-14T07:00:28.075Z,1.67
2018-08-14T07:02:56.673Z,1.83
2018-08-14T07:05:25.156Z,1.60
2018-08-14T07:07:53.651Z,1.90
2018-08-14T07:10:22.977Z,1.80
2018-08-14T07:12:51.440Z,1.90
2018-08-14T07:15:22.172Z,2.20
2018-08-14T07:17:51.501Z,2.10
2018-08-14T07:20:20.107Z,2.10
2018-08-14T07:22:49.032Z,2.20
2018-08-14T07:25:19.293Z,2.33
2018-08-14T07:27:47.799Z,1.90
2018-08-14T07:30:19.444Z,2.03
2018-08-14T07:32:48.528Z,2.07
2018-08-14T07:35:17.016Z,1.80
2018-08-14T07:37:45.991Z,1.90
2018-08-14T07:40:14.851Z,2.30
2018-08-14T07:42:43.271Z,1.73
2018-08-14T07:45:14.276Z,2.17
2018-08-14T07:47:43.180Z,1.67
2018-08-14T07:50:13.490Z,1.70
2018-08-14T07:52:42.803Z,1.60
2018-08-14T07:55:11.925Z,1.80
2018-08-14T07:57:40.722Z,1.67
2018-08-14T08:00:15.702Z,1.47
2018-08-14T08:02:44.821Z,2.00
2018-08-14T08:05:13.382Z,1.70
2018-08-14T08:07:41.836Z,1.80
2018-08-14T08:10:12.530Z,2.03
2018-08-14T08:12:41.184Z,1.80
2018-08-14T08:15:11.953Z,2.10
2018-08-14T08:17:41.249Z,2.33
2018-08-14T08:20:14.194Z,1.90
2018-08-14T08:22:42.677Z,1.90
2018-08-14T08:25:11.117Z,1.97
2018-08-14T08:27:39.600Z,1.80
2018-08-14T08:30:08.256Z,2.30
2018-08-14T08:32:36.740Z,2.10
2018-08-14T08:35:05.362Z,1.90
2018-08-14T08:37:34.718Z,1.50
2018-08-14T08:40:04.260Z,2.13
2018-08-14T08:42:32.772Z,2.10
2018-08-14T08:45:01.233Z,1.83
2018-08-14T08:47:30.230Z,1.87
2018-08-14T08:49:58.730Z,2.03
2018-08-14T08:52:27.432Z,1.60
2018-08-14T08:54:56.492Z,1.60
2018-08-14T08:57:25.034Z,1.50
2018-08-14T08:59:53.604Z,1.57
2018-08-14T09:02:22.892Z,1.60
2018-08-14T09:04:51.444Z,1.80
2018-08-14T09:07:19.904Z,1.67
2018-08-14T09:09:48.381Z,1.63
2018-08-14T09:12:18.000Z,2.00
2018-08-14T09:14:46.525Z,1.60
2018-08-14T09:17:15.079Z,1.57
2018-08-14T09:19:43.556Z,1.77
2018-08-14T09:22:12.576Z,1.70
2018-08-14T09:24:41.032Z,1.43
2018-08-14T09:27:10.060Z,1.47
2018-08-14T09:29:38.682Z,1.73
2018-08-14T09:32:07.189Z,1.57
2018-08-14T09:34:35.697Z,1.40
2018-08-14T09:37:04.470Z,1.67
2018-08-14T09:39:33.036Z,1.40
2018-08-14T09:42:01.670Z,1.50
2018-08-14T09:44:30.249Z,1.50
2018-08-14T09:46:59.473Z,1.30
2018-08-14T09:49:28.024Z,1.30
2018-08-14T09:51:56.512Z,1.60
2018-08-14T09:54:25.141Z,1.70
2018-08-14T09:56:53.612Z,1.57
2018-08-14T09:59:22.147Z,1.33
2018-08-14T10:01:56.044Z,1.40
2018-08-14T10:04:28.712Z,1.60
2018-08-14T10:07:02.492Z,1.47
2018-08-14T10:09:31.057Z,1.20
2018-08-14T10:11:59.500Z,1.47
2018-08-14T10:14:33.410Z,1.63
2018-08-14T10:17:01.868Z,1.37
2018-08-14T10:19:30.400Z,1.50
2018-08-14T10:21:59.493Z,1.43
2018-08-14T10:24:28.119Z,1.60
2018-08-14T10:26:56.664Z,1.40
2018-08-14T10:29:25.232Z,1.43
2018-08-14T10:31:53.865Z,1.33
2018-08-14T10:34:22.377Z,1.40
2018-08-14T10:36:50.860Z,1.50
2018-08-14T10:39:19.352Z,1.60
2018-08-14T10:41:48.372Z,1.57
2018-08-14T10:44:16.880Z,1.67
2018-08-14T10:46:45.416Z,1.60
2018-08-14T10:49:13.969Z,1.43
2018-08-14T10:51:42.533Z,1.67
2018-08-14T10:54:11.041Z,1.43
2018-08-14T10:56:39.641Z,1.30
2018-08-14T10:59:08.116Z,1.40
2018-08-14T11:01:36.672Z,1.30
2018-08-14T11:04:05.293Z,1.27
2018-08-14T11:06:34.396Z,1.23
2018-08-14T11:09:03.044Z,1.40
2018-08-14T11:11:35.721Z,1.40
2018-08-14T11:14:04.442Z,1.43
2018-08-14T11:16:33.031Z,1.37
2018-08-14T11:19:01.545Z,1.27
2018-08-14T11:21:30.005Z,1.30
2018-08-14T11:23:58.603Z,1.30
2018-08-14T11:26:27.111Z,1.60
2018-08-14T11:28:55.604Z,1.20
2018-08-14T11:31:24.176Z,1.40
2018-08-14T11:33:53.032Z,1.30
2018-08-14T11:36:21.577Z,1.40
2018-08-14T11:38:50.135Z,1.27
2018-08-14T11:41:18.644Z,1.37
2018-08-14T11:43:47.172Z,1.37
2018-08-14T11:46:15.713Z,1.33
2018-08-14T11:48:44.198Z,1.50
2018-08-14T11:51:12.648Z,1.37
2018-08-14T11:53:41.265Z,1.37
2018-08-14T11:56:09.748Z,1.43
2018-08-14T11:58:38.234Z,1.30
2018-08-14T12:01:06.872Z,1.47
2018-08-14T12:03:35.446Z,1.33
2018-08-14T12:06:03.942Z,1.90
2018-08-14T12:08:32.472Z,1.30
2018-08-14T12:11:01.332Z,1.50
2018-08-14T12:13:29.698Z,1.03
2018-08-14T12:15:58.182Z,1.07
2018-08-14T12:18:26.638Z,1.20
2018-08-14T12:20:56.192Z,1.20
2018-08-14T12:23:24.783Z,1.30
2018-08-14T12:25:53.277Z,1.50
2018-08-14T12:28:21.745Z,1.57
2018-08-14T12:30:50.612Z,1.20
2018-08-14T12:33:19.211Z,1.10
2018-08-14T12:35:47.711Z,1.10
2018-08-14T12:38:16.145Z,1.60
2018-08-14T12:40:45.018Z,1.40
2018-08-14T12:43:14.323Z,1.40
2018-08-14T12:45:42.801Z,1.50
2018-08-14T12:48:11.444Z,1.30
2018-08-14T12:50:39.955Z,1.30
2018-08-14T12:53:08.557Z,1.40
2018-08-14T12:55:37.095Z,1.43
2018-08-14T12:58:06.085Z,1.40
2018-08-14T13:00:34.612Z,1.20
2018-08-14T13:03:03.233Z,1.47
2018-08-14T13:05:32.220Z,1.30
2018-08-14T13:08:00.697Z,1.50
2018-08-14T13:10:29.226Z,1.30
2018-08-14T13:12:57.740Z,1.50
2018-08-14T13:15:26.378Z,1.40
2018-08-14T13:18:05.774Z,1.50
2018-08-14T13:20:34.435Z,1.30
2018-08-14T13:23:03.129Z,1.50
2018-08-14T13:25:32.027Z,1.47
2018-08-14T13:28:00.548Z,1.50
2018-08-14T13:30:29.280Z,1.50
2018-08-14T13:32:58.406Z,1.40
2018-08-14T13:35:27.752Z,1.60
2018-08-14T13:37:56.396Z,1.60
2018-08-14T13:40:24.918Z,1.30
2018-08-14T13:42:53.538Z,1.40
2018-08-14T13:45:22.125Z,1.40
2018-08-14T13:47:50.650Z,1.43
2018-08-14T13:50:19.149Z,1.57
2018-08-14T13:52:47.720Z,1.77
2018-08-14T13:55:17.932Z,1.43
2018-08-14T13:57:47.082Z,1.30
2018-08-14T14:00:18.890Z,1.50
2018-08-14T14:02:47.448Z,1.60
2018-08-14T14:05:16.757Z,1.20
2018-08-14T14:07:45.185Z,1.40
2018-08-14T14:10:15.557Z,1.60
2018-08-14T14:12:44.809Z,1.50
2018-08-14T14:15:18.680Z,1.60
2018-08-14T14:17:48.138Z,1.73
2018-08-14T14:20:18.675Z,1.30
2018-08-14T14:22:47.333Z,1.33
2018-08-14T14:25:15.914Z,1.73
2018-08-14T14:27:44.438Z,1.50
2018-08-14T14:30:14.784Z,1.70
2018-08-14T14:32:44.073Z,1.50
2018-08-14T14:35:13.484Z,1.93
2018-08-14T14:37:42.958Z,1.57
2018-08-14T14:40:15.440Z,1.50
2018-08-14T14:42:43.984Z,1.93
2018-08-14T14:45:14.021Z,2.10
2018-08-14T14:47:44.193Z,1.77
2018-08-14T14:50:12.931Z,1.30
2018-08-14T14:52:42.363Z,1.37
2018-08-14T14:55:14.928Z,1.40
2018-08-14T14:57:43.860Z,1.40
2018-08-14T15:00:18.954Z,1.57
2018-08-14T15:02:49.001Z,1.70
2018-08-14T15:05:17.696Z,2.00
2018-08-14T15:07:47.391Z,1.60
2018-08-14T15:10:16.005Z,1.73
2018-08-14T15:12:44.817Z,1.60
2018-08-14T15:15:13.497Z,1.50
2018-08-14T15:17:42.896Z,2.00
2018-08-14T15:20:13.989Z,1.30
2018-08-14T15:22:43.420Z,1.50
2018-08-14T15:25:14.305Z,2.03
2018-08-14T15:28:57.370Z,1.47
2018-08-14T15:31:26.873Z,1.73
2018-08-14T15:33:56.274Z,1.70
2018-08-14T15:36:26.441Z,1.77
2018-08-14T15:38:56.969Z,1.67
2018-08-14T15:41:26.096Z,1.50
2018-08-14T15:43:54.781Z,1.60
2018-08-14T15:46:23.571Z,1.60
2018-08-14T15:48:52.172Z,1.83
2018-08-14T15:51:20.717Z,1.73
2018-08-14T15:53:50.333Z,1.77
2018-08-14T15:56:19.213Z,1.93
2018-08-14T15:58:48.793Z,1.70
2018-08-14T16:01:17.375Z,2.10
2018-08-14T16:03:45.965Z,1.60
2018-08-14T16:06:14.670Z,1.67
2018-08-14T16:08:43.585Z,1.70
2018-08-14T16:11:12.370Z,1.67
2018-08-14T16:13:41.262Z,1.70
2018-08-14T16:16:10.594Z,1.80
2018-08-14T16:18:39.099Z,1.80
2018-08-14T16:21:08.104Z,1.70
2018-08-14T16:23:36.628Z,1.90
2018-08-14T16:26:05.104Z,1.77
2018-08-14T16:28:33.711Z,1.80
2018-08-14T16:31:02.168Z,1.60
2018-08-14T16:33:30.749Z,1.80
2018-08-14T16:35:59.353Z,1.50
2018-08-14T16:38:28.116Z,1.90
2018-08-14T16:40:57.416Z,1.93
2018-08-14T16:43:25.849Z,1.77
2018-08-14T16:45:54.400Z,1.90
2018-08-14T16:48:23.000Z,2.00
2018-08-14T16:50:51.723Z,1.90
2018-08-14T16:53:20.229Z,2.20
2018-08-14T16:55:48.836Z,1.87
2018-08-14T16:58:17.338Z,1.67
2018-08-14T17:00:45.904Z,1.73
2018-08-14T17:03:14.421Z,1.83
2018-08-14T17:05:43.013Z,1.87
2018-08-14T17:08:11.607Z,1.93
2018-08-14T17:10:40.121Z,1.77
2018-08-14T17:13:08.719Z,1.77
2018-08-14T17:15:37.175Z,2.00
2018-08-14T17:18:05.960Z,1.70
2018-08-14T17:20:33.293Z,2.03
2018-08-14T17:23:01.796Z,1.80
2018-08-14T17:25:30.979Z,1.90
2018-08-14T17:27:59.461Z,2.30
2018-08-14T17:30:28.839Z,2.20
2018-08-14T17:46:01.794Z,1.43
2018-08-14T17:48:30.295Z,1.90
2018-08-14T17:50:58.894Z,2.13
2018-08-14T17:53:27.385Z,1.87
2018-08-14T17:55:56.418Z,2.20
2018-08-14T17:58:25.664Z,1.80
2018-08-14T18:00:54.257Z,2.00
2018-08-14T18:03:22.874Z,1.70
2018-08-14T18:05:51.377Z,1.73
2018-08-14T18:08:20.496Z,2.10
2018-08-14T18:10:49.091Z,1.80
2018-08-14T18:13:17.629Z,1.80
2018-08-14T18:15:46.097Z,1.80
2018-08-14T18:18:14.625Z,1.60
2018-08-14T18:20:43.065Z,1.77
2018-08-14T18:23:11.633Z,1.60
2018-08-14T18:25:40.134Z,2.00
2018-08-14T18:28:08.651Z,1.70
2018-08-14T18:30:37.157Z,1.83
2018-08-14T18:33:05.733Z,1.57
2018-08-14T18:35:34.137Z,1.77
2018-08-14T18:38:02.651Z,1.83
2018-08-14T18:40:31.265Z,1.70
2018-08-14T18:43:00.008Z,1.77
2018-08-14T18:45:28.497Z,2.00
2018-08-14T18:47:56.988Z,1.90
2018-08-14T18:50:25.491Z,1.83
2018-08-14T18:52:54.091Z,1.73
2018-08-14T18:55:23.359Z,1.90
2018-08-14T18:57:51.906Z,2.10
2018-08-14T19:00:22.135Z,1.60
2018-08-14T19:02:51.947Z,1.50
2018-08-14T19:05:20.794Z,2.30
2018-08-14T19:07:49.545Z,2.43
2018-08-14T19:10:19.534Z,1.90
2018-08-14T19:12:48.919Z,1.80
2018-08-14T19:15:22.682Z,2.10
2018-08-14T19:17:51.270Z,2.03
2018-08-14T19:20:19.805Z,1.87
2018-08-14T19:22:49.043Z,2.20
2018-08-14T19:25:17.845Z,2.30
2018-08-14T19:27:48.367Z,1.87
2018-08-14T19:30:16.856Z,2.03
2018-08-14T19:32:45.298Z,1.73
2018-08-14T19:35:15.116Z,2.20
2018-08-14T19:37:43.637Z,2.43
2018-08-14T19:40:19.807Z,2.27
2018-08-14T19:42:48.852Z,2.20
2018-08-14T19:45:17.633Z,2.20
2018-08-14T19:47:46.232Z,2.40
2018-08-14T19:50:16.780Z,2.40
2018-08-14T19:52:45.353Z,2.27
2018-08-14T19:55:16.524Z,2.40
2018-08-14T19:57:46.448Z,2.37
2018-08-14T20:00:19.356Z,2.70
2018-08-14T20:02:47.949Z,2.03
2018-08-14T20:05:16.388Z,2.30
2018-08-14T20:07:44.994Z,2.13
2018-08-14T20:10:14.119Z,2.20
2018-08-14T20:12:42.909Z,2.20
2018-08-14T20:15:14.567Z,2.40
2018-08-14T20:17:43.174Z,2.30
2018-08-14T20:20:15.544Z,2.40
2018-08-14T20:22:44.073Z,2.60
2018-08-14T20:25:12.617Z,2.10
2018-08-14T20:27:41.268Z,1.97
2018-08-14T20:30:16.171Z,2.43
2018-08-14T20:32:45.022Z,2.60
2018-08-14T20:35:15.048Z,2.70
2018-08-14T20:37:45.316Z,2.33
2018-08-14T20:40:16.435Z,2.57
2018-08-14T20:42:45.052Z,2.10
2018-08-14T20:45:14.276Z,2.70
2018-08-14T20:47:43.265Z,2.43
2018-08-14T20:50:15.160Z,2.50
2018-08-14T20:52:44.412Z,2.93
2018-08-14T20:55:13.729Z,3.00
2018-08-14T20:57:42.952Z,2.70
2018-08-14T21:00:21.124Z,3.17
2018-08-14T21:02:50.420Z,2.50
2018-08-14T21:05:19.040Z,2.43
2018-08-14T21:07:48.005Z,2.80
2018-08-14T21:10:17.234Z,2.90
2018-08-14T21:12:46.069Z,2.87
2018-08-14T21:15:16.976Z,2.73
2018-08-14T21:17:46.566Z,2.90
2018-08-14T21:20:16.848Z,3.00
2018-08-14T21:22:46.178Z,2.77
2018-08-14T21:25:14.692Z,3.03
2018-08-14T21:27:43.232Z,3.03
2018-08-14T21:30:13.884Z,2.27
2018-08-14T21:32:42.780Z,2.90
2018-08-14T21:35:12.793Z,3.10
2018-08-14T21:37:41.392Z,2.70
2018-08-14T21:40:13.924Z,2.97
2018-08-14T21:42:44.586Z,3.00
2018-08-14T21:45:14.582Z,2.77
2018-08-14T21:47:43.375Z,2.90
2018-08-14T21:50:11.960Z,2.90
2018-08-14T21:52:40.416Z,3.90
2018-08-14T21:55:10.364Z,3.57
2018-08-14T21:57:39.666Z,3.40
2018-08-14T22:00:16.281Z,2.83
2018-08-14T22:02:44.865Z,2.93
2018-08-14T22:05:13.724Z,3.07
2018-08-14T22:07:42.776Z,3.20
2018-08-14T22:10:11.283Z,3.17
2018-08-14T22:12:39.914Z,2.73
2018-08-14T22:15:08.732Z,3.33
2018-08-14T22:17:38.057Z,4.00
2018-08-14T22:20:08.428Z,3.20
2018-08-14T22:22:36.945Z,3.17
2018-08-14T22:25:06.316Z,3.80
2018-08-14T22:27:35.055Z,3.53
2018-08-14T22:30:04.168Z,3.57
2018-08-14T22:32:32.660Z,3.63
2018-08-14T22:35:01.164Z,3.77
2018-08-14T22:37:29.920Z,3.90
2018-08-14T22:39:58.454Z,4.20
2018-08-14T22:42:26.971Z,4.17
2018-08-14T22:44:55.405Z,3.80
2018-08-14T22:47:23.895Z,4.20
2018-08-14T22:49:52.379Z,4.67
2018-08-14T22:52:20.864Z,3.83
2018-08-14T22:54:49.332Z,4.00
2018-08-14T22:57:18.010Z,4.27
2018-08-14T22:59:46.479Z,4.47
2018-08-14T23:02:14.916Z,4.50
2018-08-14T23:04:43.563Z,4.20
2018-08-14T23:07:12.120Z,3.40
2018-08-14T23:09:40.648Z,4.27
2018-08-14T23:12:09.136Z,3.77
2018-08-14T23:14:37.593Z,3.73
2018-08-14T23:17:06.173Z,4.07
2018-08-14T23:19:34.615Z,4.63
2018-08-14T23:22:03.319Z,4.50
2018-08-14T23:24:31.791Z,5.57
2018-08-14T23:27:00.332Z,4.67
2018-08-14T23:29:29.014Z,4.60
2018-08-14T23:31:57.481Z,4.13
2018-08-14T23:34:25.984Z,4.30
2018-08-14T23:36:54.474Z,4.40
2018-08-14T23:39:23.040Z,4.37
2018-08-14T23:41:51.527Z,4.10
2018-08-14T23:44:19.979Z,4.23
2018-08-14T23:46:48.409Z,4.37
2018-08-14T23:49:16.933Z,4.87
2018-08-14T23:51:45.357Z,4.57
2018-08-14T23:54:13.839Z,4.80
2018-08-14T23:56:42.313Z,4.87
2018-08-14T23:59:10.777Z,3.97
